Pathhead, United Kingdom
Current Conditions -  °F | °C
As of 4:20 AM on Sunday 21 Dec 2014 (Local Time) from EGPH Reporting Station
Light Rain Light Rain  
Wind Chill: 38°   Ceiling: 1600
Heat Index: 45°   Visibility: 5mi
Dew Point: 41°   Wind: 15mph
Humidity: 87%   Direction: 220°SW
Pressure: 30.03"   Gusts: NA
Location:  55.86°N, 2.97°W
Report Text: EGPH 210420Z 22013KT 8000 -RA OVC016 07/05 Q1017
Loading
Personal Weather Stations






























Interactive Weather Map New forecast layout! Learn more

10-Day Weather Forecast

Advertisements
Track Severe Weather on mobile